Time;durP1;ratioP1;P1;durP2;ratioP2;P2;SDS_P1;SDS_P2;PMS_P1;PMS_P2;Temp;Humidity;BMP_temperature;BMP_pressure;BME280_temperature;BME280_humidity;BME280_pressure;Samples;Min_cycle;Max_cycle;Signal;HPM_P1;HPM_P2
2024/01/22 00:00:21;;;;;;;4.88;4.05;;;;;;;;;;5015649;28;20045;-91
2024/01/22 00:02:47;;;;;;;5.30;4.15;;;;;;;;;;4999732;28;20095;-89
2024/01/22 00:05:13;;;;;;;6.43;4.18;;;;;;;;;;4999811;28;20104;-92
2024/01/22 00:07:39;;;;;;;10.13;5.13;;;;;;;;;;5015176;28;20494;-92
2024/01/22 00:10:07;;;;;;;7.78;4.25;;;;;;;;;;5032752;28;20374;-91
2024/01/22 00:12:33;;;;;;;6.30;3.92;;;;;;;;;;5015809;28;20038;-90
2024/01/22 00:15:00;;;;;;;7.35;4.00;;;;;;;;;;4999683;28;20060;-92
2024/01/22 00:17:26;;;;;;;4.95;4.03;;;;;;;;;;4999705;28;20041;-91
2024/01/22 00:19:52;;;;;;;6.47;4.55;;;;;;;;;;5015773;28;20124;-91
2024/01/22 00:22:18;;;;;;;10.57;4.45;;;;;;;;;;5032161;28;20092;-95
2024/01/22 00:24:44;;;;;;;9.60;4.50;;;;;;;;;;5015383;28;20045;-91
2024/01/22 00:27:10;;;;;;;7.43;4.25;;;;;;;;;;5031154;28;20128;-91
2024/01/22 00:29:36;;;;;;;8.10;3.90;;;;;;;;;;5022452;28;20041;-91
2024/01/22 00:32:03;;;;;;;9.52;4.82;;;;;;;;;;5014932;28;20493;-91
2024/01/22 00:34:29;;;;;;;12.32;3.83;;;;;;;;;;4999366;28;20053;-89
2024/01/22 00:36:55;;;;;;;5.88;4.65;;;;;;;;;;5015353;28;20076;-91
2024/01/22 00:39:22;;;;;;;6.80;4.68;;;;;;;;;;5018059;28;20051;-92
2024/01/22 00:41:48;;;;;;;7.15;4.15;;;;;;;;;;5030217;28;20040;-91
2024/01/22 00:44:14;;;;;;;5.05;3.72;;;;;;;;;;5015113;28;20134;-91
2024/01/22 00:46:40;;;;;;;6.63;4.15;;;;;;;;;;5031330;28;20045;-90
2024/01/22 00:49:06;;;;;;;5.97;4.05;;;;;;;;;;4998490;28;20064;-88
2024/01/22 00:51:33;;;;;;;7.82;3.95;;;;;;;;;;5034828;28;20124;-91
2024/01/22 00:53:59;;;;;;;8.68;4.20;;;;;;;;;;5035638;28;20071;-88
2024/01/22 00:56:26;;;;;;;5.97;4.65;;;;;;;;;;5029432;28;20501;-90
2024/01/22 00:58:52;;;;;;;8.70;4.43;;;;;;;;;;5000702;28;20038;-91
2024/01/22 01:01:18;;;;;;;5.50;3.90;;;;;;;;;;5000124;28;21002;-90
2024/01/22 01:03:44;;;;;;;4.80;3.80;;;;;;;;;;5013746;28;20410;-91
2024/01/22 01:06:10;;;;;;;6.05;4.00;;;;;;;;;;5001358;28;20486;-91
2024/01/22 01:08:36;;;;;;;8.40;4.25;;;;;;;;;;5016469;28;20444;-91
2024/01/22 01:11:02;;;;;;;6.13;4.05;;;;;;;;;;4999163;28;20470;-91
2024/01/22 01:13:28;;;;;;;7.82;3.55;;;;;;;;;;5015964;28;20042;-92
2024/01/22 01:15:54;;;;;;;7.30;3.80;;;;;;;;;;5015054;28;20045;-91
2024/01/22 01:18:20;;;;;;;10.52;5.40;;;;;;;;;;4998550;28;20076;-90
2024/01/22 01:20:46;;;;;;;10.25;4.57;;;;;;;;;;4998494;28;20127;-93
2024/01/22 01:23:12;;;;;;;6.57;3.78;;;;;;;;;;5015140;28;20068;-92
2024/01/22 01:25:38;;;;;;;7.93;4.00;;;;;;;;;;5015973;28;20051;-95
2024/01/22 01:28:04;;;;;;;6.82;3.90;;;;;;;;;;5014684;28;20049;-93
2024/01/22 01:30:30;;;;;;;7.55;3.63;;;;;;;;;;5015158;28;20053;-93
2024/01/22 01:32:56;;;;;;;6.13;4.03;;;;;;;;;;4998804;28;20502;-94
2024/01/22 01:35:22;;;;;;;7.93;4.25;;;;;;;;;;5015111;28;20629;-91
2024/01/22 01:37:48;;;;;;;7.25;3.88;;;;;;;;;;5015218;28;20049;-92
2024/01/22 01:40:15;;;;;;;6.53;3.90;;;;;;;;;;5014861;28;20072;-93
2024/01/22 01:42:42;;;;;;;9.23;3.47;;;;;;;;;;5014732;28;20052;-91
2024/01/22 01:45:12;;;;;;;6.47;3.80;;;;;;;;;;5014789;28;20046;-92
2024/01/22 01:47:38;;;;;;;8.70;4.28;;;;;;;;;;5030963;28;20125;-92
2024/01/22 01:50:04;;;;;;;11.65;3.90;;;;;;;;;;5014623;28;20095;-90
2024/01/22 01:52:30;;;;;;;6.55;3.60;;;;;;;;;;4998892;28;20045;-91
2024/01/22 01:54:56;;;;;;;4.70;3.88;;;;;;;;;;5018243;28;20050;-91
2024/01/22 01:57:22;;;;;;;5.40;4.05;;;;;;;;;;4999332;28;20049;-89
2024/01/22 01:59:49;;;;;;;7.32;3.78;;;;;;;;;;5014599;28;20058;-92
2024/01/22 02:02:15;;;;;;;4.32;3.38;;;;;;;;;;4998277;28;20041;-91
2024/01/22 02:04:41;;;;;;;8.30;4.57;;;;;;;;;;5024330;28;20038;-91
2024/01/22 02:07:07;;;;;;;6.75;3.60;;;;;;;;;;4998190;28;20041;-94
2024/01/22 02:09:49;;;;;;;8.50;4.18;;;;;;;;;;4998346;28;20053;-90
2024/01/22 02:12:16;;;;;;;5.60;3.90;;;;;;;;;;5014377;28;20095;-92
2024/01/22 02:14:42;;;;;;;8.25;3.70;;;;;;;;;;5015541;28;20056;-92
2024/01/22 02:17:08;;;;;;;9.65;4.07;;;;;;;;;;5014418;28;20049;-91
2024/01/22 02:19:34;;;;;;;5.82;4.20;;;;;;;;;;5014071;28;20049;-94
2024/01/22 02:22:01;;;;;;;6.05;3.78;;;;;;;;;;5031102;28;20053;-94
2024/01/22 02:24:27;;;;;;;7.22;3.63;;;;;;;;;;5015041;28;20056;-96
2024/01/22 02:26:53;;;;;;;11.05;3.80;;;;;;;;;;5016252;28;20115;-96
2024/01/22 02:29:19;;;;;;;8.98;3.67;;;;;;;;;;5034878;28;20131;-95
2024/01/22 02:31:48;;;;;;;5.22;3.45;;;;;;;;;;5020683;28;20056;-95
2024/01/22 02:34:14;;;;;;;7.10;4.15;;;;;;;;;;5038041;28;20045;-93
2024/01/22 02:36:40;;;;;;;6.20;4.32;;;;;;;;;;5021025;28;20045;-92
2024/01/22 02:39:06;;;;;;;5.57;3.80;;;;;;;;;;5004563;28;20044;-91
2024/01/22 02:41:32;;;;;;;7.10;3.60;;;;;;;;;;5018146;28;20053;-91
2024/01/22 02:43:58;;;;;;;5.43;3.08;;;;;;;;;;5002500;28;20046;-91
2024/01/22 02:46:25;;;;;;;5.13;3.60;;;;;;;;;;5018292;28;20037;-92
2024/01/22 02:48:51;;;;;;;5.53;3.40;;;;;;;;;;5027738;28;20048;-91
2024/01/22 02:51:17;;;;;;;4.50;3.90;;;;;;;;;;5038093;28;20045;-91
2024/01/22 02:53:43;;;;;;;8.35;4.03;;;;;;;;;;5021178;28;20114;-93
2024/01/22 02:56:09;;;;;;;5.65;3.58;;;;;;;;;;5005729;28;20037;-92
2024/01/22 02:58:35;;;;;;;5.60;3.25;;;;;;;;;;5011328;28;20127;-93
2024/01/22 03:01:01;;;;;;;7.32;3.38;;;;;;;;;;5023699;28;20044;-89
2024/01/22 03:03:27;;;;;;;14.57;3.55;;;;;;;;;;5020452;28;20037;-92
2024/01/22 03:05:53;;;;;;;3.75;3.08;;;;;;;;;;5037189;28;20044;-91
2024/01/22 03:08:19;;;;;;;5.30;3.45;;;;;;;;;;5036986;28;20045;-90
2024/01/22 03:10:45;;;;;;;3.65;3.10;;;;;;;;;;5029456;28;20048;-91
2024/01/22 03:13:12;;;;;;;5.97;3.70;;;;;;;;;;5017067;28;20042;-90
2024/01/22 03:15:38;;;;;;;3.28;2.75;;;;;;;;;;5033479;28;20048;-93
2024/01/22 03:18:04;;;;;;;8.32;3.63;;;;;;;;;;5017158;28;20139;-94
2024/01/22 03:20:30;;;;;;;9.23;4.03;;;;;;;;;;5017137;28;20044;-91
2024/01/22 03:22:56;;;;;;;4.68;3.30;;;;;;;;;;5025400;28;20049;-91
2024/01/22 03:25:22;;;;;;;3.80;3.13;;;;;;;;;;5037204;28;20044;-96
2024/01/22 03:27:48;;;;;;;7.32;3.33;;;;;;;;;;5010024;28;20053;-92
2024/01/22 03:30:14;;;;;;;4.47;3.20;;;;;;;;;;5017505;28;20041;-95
2024/01/22 03:32:40;;;;;;;4.97;3.00;;;;;;;;;;5001032;28;20041;-94
2024/01/22 03:35:06;;;;;;;4.97;3.05;;;;;;;;;;5000907;28;20075;-93
2024/01/22 03:37:32;;;;;;;6.20;3.25;;;;;;;;;;5033725;28;20041;-92
2024/01/22 03:39:59;;;;;;;6.57;3.50;;;;;;;;;;5032831;28;20042;-91
2024/01/22 03:42:25;;;;;;;6.88;4.10;;;;;;;;;;4999956;28;20041;-93
2024/01/22 03:44:53;;;;;;;6.38;3.85;;;;;;;;;;5016082;28;20124;-89
2024/01/22 03:47:19;;;;;;;4.32;3.08;;;;;;;;;;5014304;28;20041;-92
2024/01/22 03:49:45;;;;;;;4.95;3.17;;;;;;;;;;5020618;28;20540;-94
2024/01/22 03:52:11;;;;;;;3.92;2.72;;;;;;;;;;5019716;28;20041;-92
2024/01/22 03:54:37;;;;;;;3.08;2.63;;;;;;;;;;5036168;28;20412;-92
2024/01/22 03:57:07;;;;;;;3.97;2.85;;;;;;;;;;5025077;28;20045;-91
2024/01/22 03:59:34;;;;;;;2.92;2.72;;;;;;;;;;5016609;28;20045;-92
2024/01/22 04:02:00;;;;;;;3.53;2.67;;;;;;;;;;5019265;28;20059;-93
2024/01/22 04:04:26;;;;;;;2.90;2.70;;;;;;;;;;5002633;28;20049;-95
2024/01/22 04:06:52;;;;;;;4.10;3.05;;;;;;;;;;5021684;28;20129;-95
2024/01/22 04:09:18;;;;;;;3.38;2.58;;;;;;;;;;5002282;28;20567;-91
2024/01/22 04:11:44;;;;;;;4.80;2.45;;;;;;;;;;5019218;28;20044;-93
2024/01/22 04:14:10;;;;;;;3.22;2.45;;;;;;;;;;5003337;28;20068;-96
2024/01/22 04:16:36;;;;;;;2.65;2.42;;;;;;;;;;5018795;28;20045;-94
2024/01/22 04:19:02;;;;;;;2.40;2.20;;;;;;;;;;5030315;28;20106;-92
2024/01/22 04:21:28;;;;;;;4.53;2.40;;;;;;;;;;5038293;28;20523;-96
2024/01/22 04:23:54;;;;;;;2.85;2.05;;;;;;;;;;5026331;28;20059;-94
2024/01/22 04:26:21;;;;;;;3.55;2.10;;;;;;;;;;5004418;28;20046;-94
2024/01/22 04:28:47;;;;;;;2.72;2.40;;;;;;;;;;5041690;28;20041;-94
2024/01/22 04:31:13;;;;;;;1.70;1.60;;;;;;;;;;5024954;28;20076;-95
2024/01/22 04:33:39;;;;;;;2.85;2.65;;;;;;;;;;5010013;28;20117;-94
2024/01/22 04:36:05;;;;;;;2.50;2.17;;;;;;;;;;5028312;28;20041;-93
2024/01/22 04:38:32;;;;;;;2.30;2.10;;;;;;;;;;5015121;28;20057;-93
2024/01/22 04:40:58;;;;;;;2.63;2.00;;;;;;;;;;5028142;28;20065;-93
2024/01/22 04:43:24;;;;;;;2.10;1.90;;;;;;;;;;5009346;28;20045;-95
2024/01/22 04:45:50;;;;;;;2.40;2.20;;;;;;;;;;5026322;28;20064;-94
2024/01/22 04:48:17;;;;;;;2.03;1.92;;;;;;;;;;5013525;28;20068;-95
2024/01/22 04:50:47;;;;;;;2.70;2.20;;;;;;;;;;5047720;28;20045;-94
2024/01/22 04:53:15;;;;;;;2.40;1.90;;;;;;;;;;5023712;28;20044;-92
2024/01/22 04:55:42;;;;;;;2.80;2.45;;;;;;;;;;5036665;28;20034;-94
2024/01/22 04:58:15;;;;;;;3.15;1.90;;;;;;;;;;5014071;28;20049;-93
2024/01/22 05:00:41;;;;;;;1.88;1.48;;;;;;;;;;5043884;28;20103;-95
2024/01/22 05:03:07;;;;;;;1.42;1.35;;;;;;;;;;5020528;28;20053;-96
2024/01/22 05:05:34;;;;;;;2.17;1.95;;;;;;;;;;5027155;28;20096;-96
2024/01/22 05:08:01;;;;;;;1.70;1.60;;;;;;;;;;5026573;28;20041;-95
2024/01/22 05:10:28;;;;;;;1.73;1.63;;;;;;;;;;5076374;22;20044;-96
2024/01/22 05:12:54;;;;;;;1.60;1.50;;;;;;;;;;5027815;28;20611;-96
2024/01/22 05:15:20;;;;;;;1.50;1.40;;;;;;;;;;5040829;28;20060;-96
2024/01/22 05:17:46;;;;;;;3.75;1.35;;;;;;;;;;5030965;28;20048;-95
2024/01/22 05:20:13;;;;;;;2.40;1.50;;;;;;;;;;5022496;28;20049;-94
2024/01/22 05:22:39;;;;;;;1.98;1.17;;;;;;;;;;5065914;28;20040;-95
2024/01/22 05:25:05;;;;;;;1.60;1.50;;;;;;;;;;5042544;28;20128;-96
2024/01/22 05:27:31;;;;;;;2.83;1.30;;;;;;;;;;5025636;28;20083;-95
2024/01/22 05:29:57;;;;;;;3.00;1.30;;;;;;;;;;5058329;28;20052;-96
2024/01/22 05:32:23;;;;;;;1.95;1.48;;;;;;;;;;5059808;28;20045;-96
2024/01/22 05:34:50;;;;;;;1.30;1.20;;;;;;;;;;5047269;28;20052;-96
2024/01/22 05:37:17;;;;;;;2.03;1.48;;;;;;;;;;5079076;28;20058;-96
2024/01/22 05:39:43;;;;;;;2.55;1.33;;;;;;;;;;5059289;28;20069;-96
2024/01/22 05:42:09;;;;;;;1.33;1.23;;;;;;;;;;5046839;28;20047;-96
2024/01/22 05:44:54;;;;;;;1.92;1.33;;;;;;;;;;5052795;28;20140;-95
2024/01/22 05:47:26;;;;;;;1.05;1.05;;;;;;;;;;5072987;28;20045;-95
2024/01/22 05:49:53;;;;;;;1.70;1.40;;;;;;;;;;5036036;28;20049;-94
2024/01/22 05:52:20;;;;;;;6.00;1.35;;;;;;;;;;5044316;28;20531;-93
2024/01/22 05:54:46;;;;;;;3.53;1.80;;;;;;;;;;5018613;28;20070;-94
2024/01/22 05:57:12;;;;;;;1.95;1.67;;;;;;;;;;5023481;28;20413;-93
2024/01/22 05:59:41;;;;;;;3.45;1.45;;;;;;;;;;5038049;28;20048;-95
2024/01/22 06:02:07;;;;;;;2.55;1.35;;;;;;;;;;5054429;28;20133;-93
2024/01/22 06:04:33;;;;;;;1.65;1.50;;;;;;;;;;5037390;28;20044;-95
2024/01/22 06:07:02;;;;;;;3.10;1.40;;;;;;;;;;5043517;28;20472;-96
2024/01/22 06:12:47;;;;;;;2.80;1.05;;;;;;;;;;5070836;28;20120;-96
2024/01/22 06:15:30;;;;;;;;;;;;;;;;;;;;;
2024/01/22 06:18:08;;;;;;;4.43;1.35;;;;;;;;;;5082353;28;20131;-96
2024/01/22 06:20:39;;;;;;;2.85;1.20;;;;;;;;;;5069800;28;20112;-96
2024/01/22 06:37:06;;;;;;;3.55;2.25;;;;;;;;;;5038167;28;20041;-95
2024/01/22 06:39:32;;;;;;;6.15;2.10;;;;;;;;;;5051665;28;20060;-93
2024/01/22 06:41:58;;;;;;;9.05;2.28;;;;;;;;;;5052276;28;20095;-92
2024/01/22 06:44:24;;;;;;;5.28;2.00;;;;;;;;;;5052151;28;20067;-92
2024/01/22 06:46:50;;;;;;;6.55;2.08;;;;;;;;;;5051417;28;20113;-92
2024/01/22 06:49:16;;;;;;;9.98;2.20;;;;;;;;;;5068819;28;20100;-94
2024/01/22 06:51:42;;;;;;;8.52;2.30;;;;;;;;;;5052203;28;20044;-94
2024/01/22 06:54:09;;;;;;;4.85;2.42;;;;;;;;;;5049669;28;20057;-93
2024/01/22 06:56:35;;;;;;;7.78;2.50;;;;;;;;;;5060465;23;20056;-94
2024/01/22 06:59:04;;;;;;;5.00;2.65;;;;;;;;;;5066674;28;20045;-92
2024/01/22 07:01:30;;;;;;;9.38;2.60;;;;;;;;;;5050287;28;20060;-93
2024/01/22 07:03:56;;;;;;;11.40;3.45;;;;;;;;;;5041209;28;20037;-93
2024/01/22 07:06:32;;;;;;;14.77;3.53;;;;;;;;;;5086447;28;20096;-94
2024/01/22 07:08:58;;;;;;;11.05;3.45;;;;;;;;;;5068193;28;20044;-93
2024/01/22 07:11:27;;;;;;;13.80;3.38;;;;;;;;;;5084792;28;20068;-93
2024/01/22 07:14:00;;;;;;;8.75;2.90;;;;;;;;;;5052913;28;20356;-93
2024/01/22 07:16:26;;;;;;;15.82;3.58;;;;;;;;;;5055786;28;20037;-93
2024/01/22 07:18:59;;;;;;;11.23;4.60;;;;;;;;;;5065992;28;20052;-94
2024/01/22 07:21:25;;;;;;;14.23;4.32;;;;;;;;;;5047318;28;20041;-93
2024/01/22 07:23:54;;;;;;;14.38;3.88;;;;;;;;;;5045073;28;20041;-92
2024/01/22 07:26:21;;;;;;;21.48;4.53;;;;;;;;;;5043928;28;20084;-93
2024/01/22 07:28:59;;;;;;;17.48;3.92;;;;;;;;;;5083090;23;20052;-93
2024/01/22 07:31:26;;;;;;;18.85;5.50;;;;;;;;;;5066973;28;20048;-92
2024/01/22 07:33:52;;;;;;;16.95;4.15;;;;;;;;;;5074562;22;20049;-93
2024/01/22 07:36:21;;;;;;;13.90;4.35;;;;;;;;;;5084709;28;20060;-93
2024/01/22 07:38:49;;;;;;;26.98;7.95;;;;;;;;;;5063081;28;20131;-93
2024/01/22 07:41:15;;;;;;;32.53;5.55;;;;;;;;;;5058819;28;20045;-94
2024/01/22 07:43:41;;;;;;;26.17;6.07;;;;;;;;;;5053843;28;20041;-93
2024/01/22 07:46:08;;;;;;;25.60;6.18;;;;;;;;;;5022234;28;20041;-93
2024/01/22 07:48:35;;;;;;;12.63;5.97;;;;;;;;;;5049239;28;20109;-93
2024/01/22 07:51:02;;;;;;;19.67;5.60;;;;;;;;;;5021995;28;20041;-93
2024/01/22 07:53:30;;;;;;;25.75;5.55;;;;;;;;;;5069222;28;20074;-94
2024/01/22 07:55:58;;;;;;;12.65;3.67;;;;;;;;;;5042789;28;20033;-95
2024/01/22 07:58:25;;;;;;;13.05;3.67;;;;;;;;;;5048546;28;20041;-94
2024/01/22 08:01:17;;;;;;;7.13;3.45;;;;;;;;;;5010991;28;20125;-95
2024/01/22 08:03:50;;;;;;;6.78;2.70;;;;;;;;;;5020099;28;20045;-94
2024/01/22 08:06:16;;;;;;;11.88;3.13;;;;;;;;;;5044602;28;20045;-95
2024/01/22 08:08:42;;;;;;;12.63;2.67;;;;;;;;;;5045615;28;20044;-96
2024/01/22 08:11:18;;;;;;;6.82;2.78;;;;;;;;;;5043240;28;20045;-94
2024/01/22 08:13:44;;;;;;;7.10;2.45;;;;;;;;;;5043001;28;20049;-94
2024/01/22 08:16:17;;;;;;;13.23;3.80;;;;;;;;;;5033330;28;20056;-93
2024/01/22 08:19:01;;;;;;;18.17;3.40;;;;;;;;;;5063926;28;20044;-95
2024/01/22 08:21:27;;;;;;;18.23;4.68;;;;;;;;;;5049074;28;20440;-94
2024/01/22 08:23:54;;;;;;;10.00;3.78;;;;;;;;;;5047503;28;20542;-92
2024/01/22 08:26:20;;;;;;;18.10;3.92;;;;;;;;;;5060462;28;20057;-94
2024/01/22 08:28:46;;;;;;;25.10;5.43;;;;;;;;;;5037430;28;20041;-94
2024/01/22 08:31:24;;;;;;;16.38;5.28;;;;;;;;;;5053347;28;20041;-93
2024/01/22 08:33:57;;;;;;;25.77;6.97;;;;;;;;;;5056388;28;20744;-95
2024/01/22 08:36:24;;;;;;;34.43;7.97;;;;;;;;;;5057112;28;20076;-94
2024/01/22 08:38:53;;;;;;;38.10;6.35;;;;;;;;;;5056887;28;20051;-94
2024/01/22 08:41:31;;;;;;;23.33;8.02;;;;;;;;;;5059382;28;20058;-93
2024/01/22 08:44:02;;;;;;;29.88;7.35;;;;;;;;;;5056412;28;20049;-94
2024/01/22 08:49:17;;;;;;;29.98;8.50;;;;;;;;;;5066975;28;20068;-94
2024/01/22 08:51:49;;;;;;;21.52;6.68;;;;;;;;;;5066464;28;20120;-93
2024/01/22 08:54:16;;;;;;;38.97;8.68;;;;;;;;;;5032214;28;20044;-94
2024/01/22 08:56:45;;;;;;;31.83;9.23;;;;;;;;;;5063598;28;20045;-94
2024/01/22 08:59:11;;;;;;;33.63;9.30;;;;;;;;;;5034264;28;20073;-93
2024/01/22 09:01:37;;;;;;;32.67;8.27;;;;;;;;;;5015590;28;20060;-94
2024/01/22 09:04:10;;;;;;;23.30;8.50;;;;;;;;;;5027318;28;20052;-94
2024/01/22 09:06:38;;;;;;;42.03;9.32;;;;;;;;;;5013618;28;20057;-94
2024/01/22 09:09:11;;;;;;;29.95;8.23;;;;;;;;;;5011650;28;20136;-94
2024/01/22 09:11:56;;;;;;;33.28;10.48;;;;;;;;;;5031722;28;20056;-94
2024/01/22 09:14:42;;;;;;;34.90;10.45;;;;;;;;;;5030406;28;20059;-94
2024/01/22 09:17:10;;;;;;;42.13;11.23;;;;;;;;;;5012073;28;20050;-95
2024/01/22 09:19:36;;;;;;;41.90;11.38;;;;;;;;;;5011789;28;20064;-95
2024/01/22 09:22:03;;;;;;;39.17;9.52;;;;;;;;;;5026355;28;20057;-93
2024/01/22 09:24:29;;;;;;;41.28;9.18;;;;;;;;;;5007323;28;20064;-92
2024/01/22 09:26:55;;;;;;;48.05;10.57;;;;;;;;;;5009564;28;20049;-95
2024/01/22 09:29:21;;;;;;;34.72;8.98;;;;;;;;;;5044176;28;20079;-94
2024/01/22 09:31:53;;;;;;;50.80;9.07;;;;;;;;;;5027403;28;20040;-94
2024/01/22 09:34:20;;;;;;;42.75;9.85;;;;;;;;;;5026312;28;20061;-94
2024/01/22 09:36:46;;;;;;;43.95;10.70;;;;;;;;;;5042130;28;20512;-94
2024/01/22 09:39:12;;;;;;;35.70;9.57;;;;;;;;;;5041321;28;20133;-93
2024/01/22 09:41:38;;;;;;;45.78;7.47;;;;;;;;;;5039462;28;20041;-95
2024/01/22 09:44:10;;;;;;;37.92;9.32;;;;;;;;;;5040759;28;20485;-93
2024/01/22 09:46:37;;;;;;;40.47;8.57;;;;;;;;;;5058347;28;20068;-94
2024/01/22 09:49:05;;;;;;;40.03;9.32;;;;;;;;;;5041706;28;20049;-94
2024/01/22 09:51:44;;;;;;;38.45;9.05;;;;;;;;;;5043734;28;20044;-94
2024/01/22 09:54:20;;;;;;;39.90;8.88;;;;;;;;;;5041460;28;20049;-94
2024/01/22 09:57:02;;;;;;;38.70;8.50;;;;;;;;;;5058935;28;20083;-94
2024/01/22 09:59:29;;;;;;;35.78;8.02;;;;;;;;;;5058224;28;20083;-93
2024/01/22 10:01:55;;;;;;;34.83;9.02;;;;;;;;;;5041200;28;20037;-94
2024/01/22 10:04:26;;;;;;;49.10;9.23;;;;;;;;;;5044641;28;20106;-93
2024/01/22 10:06:58;;;;;;;33.45;9.43;;;;;;;;;;5044614;28;20071;-92
2024/01/22 10:09:29;;;;;;;34.08;8.85;;;;;;;;;;5061004;28;20053;-94
2024/01/22 10:12:05;;;;;;;24.38;6.72;;;;;;;;;;5029868;28;20054;-94
2024/01/22 10:14:40;;;;;;;34.28;8.10;;;;;;;;;;5047433;28;20071;-91
2024/01/22 10:17:20;;;;;;;35.00;8.43;;;;;;;;;;5062167;28;20041;-92
2024/01/22 10:19:47;;;;;;;50.58;8.95;;;;;;;;;;5046117;28;20137;-93
2024/01/22 10:22:17;;;;;;;18.65;5.72;;;;;;;;;;5059897;28;20073;-92
2024/01/22 10:25:12;;;;;;;29.08;5.80;;;;;;;;;;5044421;28;20124;-93
2024/01/22 10:27:38;;;;;;;33.13;7.60;;;;;;;;;;5040586;28;20048;-92
2024/01/22 10:30:13;;;;;;;19.58;5.88;;;;;;;;;;5055869;28;20060;-92
2024/01/22 10:32:40;;;;;;;22.77;4.88;;;;;;;;;;5038990;28;20033;-91
2024/01/22 10:35:29;;;;;;;26.90;7.30;;;;;;;;;;5055758;28;20037;-92
2024/01/22 10:38:25;;;;;;;23.75;5.68;;;;;;;;;;5059009;28;20060;-92
2024/01/22 10:40:51;;;;;;;17.25;4.60;;;;;;;;;;5056273;28;20045;-92
2024/01/22 10:43:26;;;;;;;25.63;5.43;;;;;;;;;;5026432;28;20436;-92
2024/01/22 10:45:52;;;;;;;21.92;5.15;;;;;;;;;;5041529;28;20060;-92
2024/01/22 10:48:19;;;;;;;21.25;6.25;;;;;;;;;;5021040;28;20045;-92
2024/01/22 10:50:46;;;;;;;15.63;4.38;;;;;;;;;;5032821;28;20044;-90
2024/01/22 10:53:12;;;;;;;18.90;4.45;;;;;;;;;;5043177;28;20044;-92
2024/01/22 10:55:41;;;;;;;30.85;6.32;;;;;;;;;;5028470;28;20109;-91
2024/01/22 11:02:17;;;;;;;;;;;;;;;;;;;;;
2024/01/22 11:11:16;;;;;;;18.30;4.88;;;9.70;99.90;;;;;;5097747;22;20075;-90
2024/01/22 11:17:17;;;;;;;30.55;6.53;;;;;;;;;;1317258;26;21094;-94
2024/01/22 11:19:45;;;;;;;15.05;4.20;;;;;;;;;;5054576;28;20135;-93
2024/01/22 11:22:23;;;;;;;11.15;4.72;;;;;;;;;;5097495;22;20041;-90
2024/01/22 11:25:25;;;;;;;15.88;5.57;;;;;;;;;;5013924;28;20056;-92
2024/01/22 11:30:47;;;;;;;12.05;3.55;;;;;;;;;;5064312;22;20091;-92
2024/01/22 11:33:31;;;;;;;18.42;4.28;;;;;;;;;;5038039;28;20049;-90
2024/01/22 11:36:15;;;;;;;18.17;3.90;;;;;;;;;;5104331;22;20076;-92
2024/01/22 11:38:54;;;;;;;18.00;4.25;;;;;;;;;;5061159;28;20044;-92
2024/01/22 11:41:40;;;;;;;15.63;3.60;;;;;;;;;;5058999;28;20102;-90
2024/01/22 11:44:08;;;;;;;16.50;4.72;;;;;;;;;;5057274;28;20067;-92
2024/01/22 11:46:45;;;;;;;18.27;6.25;;;;;;;;;;5060350;28;20409;-93
2024/01/22 11:49:29;;;;;;;19.75;4.82;;;;;;;;;;5060897;28;20048;-93
2024/01/22 11:52:14;;;;;;;;;;;10.00;99.90;;;;;;5077552;28;20118;-93
2024/01/22 11:55:00;;;;;;;29.90;5.63;;;;;;;;;;5060800;28;19967;-93
2024/01/22 11:57:27;;;;;;;19.98;3.42;;;;;;;;;;5040298;28;20083;-94
2024/01/22 12:00:15;;;;;;;22.15;4.60;;;10.00;99.90;;;;;;5062137;28;20040;-92
2024/01/22 12:02:45;;;;;;;15.35;4.25;;;;;;;;;;5043466;28;20062;-92
2024/01/22 12:05:20;;;;;;;11.85;3.30;;;;;;;;;;5068902;28;20067;-92
2024/01/22 12:07:53;;;;;;;17.50;4.03;;;;;;;;;;5062694;28;20105;-94
2024/01/22 12:10:46;;;;;;;17.15;4.40;;;;;;;;;;5060751;28;20408;-93
2024/01/22 12:13:16;;;;;;;14.27;3.97;;;;;;;;;;5083140;22;20097;-93
2024/01/22 12:19:04;;;;;;;;;;;;;;;;;;;;;
2024/01/22 12:21:49;;;;;;;13.15;4.60;;;;;;;;;;5067151;28;20059;-94
2024/01/22 12:25:34;;;;;;;22.13;3.80;;;10.10;98.10;;;;;;5051793;28;20084;-93
2024/01/22 12:31:42;;;;;;;21.80;5.55;;;9.70;98.90;;;;;;1315684;22;20316;-95
2024/01/22 12:45:16;;;;;;;;;;;;;;;;;;;;;
2024/01/22 13:04:12;;;;;;;12.88;5.03;;;;;;;;;;5108334;23;20052;-92
2024/01/22 13:07:44;;;;;;;;;;;;;;;;;;;;;
2024/01/22 13:10:33;;;;;;;16.48;4.82;;;;;;;;;;4824273;29;20519;-93
2024/01/22 13:13:41;;;;;;;24.90;4.85;;;;;;;;;;4903146;23;20047;-93
2024/01/22 13:19:26;;;;;;;18.17;5.00;;;;;;;;;;4962999;28;20117;-93
2024/01/22 13:22:16;;;;;;;17.10;4.25;;;;;;;;;;4941038;29;20412;-93
2024/01/22 13:25:08;;;;;;;17.60;4.80;;;;;;;;;;4939941;28;20129;-92
2024/01/22 13:27:40;;;;;;;16.67;4.90;;;;;;;;;;4937675;28;20047;-94
2024/01/22 13:30:12;;;;;;;23.55;5.13;;;;;;;;;;4942792;28;20108;-92
2024/01/22 13:35:37;;;;;;;20.20;4.90;;;;;;;;;;4933496;28;20043;-92
2024/01/22 13:38:09;;;;;;;23.20;4.53;;;;;;;;;;4973790;28;20046;-95
2024/01/22 13:43:59;;;;;;;16.90;4.32;;;;;;;;;;4953013;23;20051;-91
2024/01/22 13:46:28;;;;;;;22.25;5.95;;;;;;;;;;4964805;23;20040;-91
2024/01/22 13:48:57;;;;;;;14.88;5.20;;;;;;;;;;4949583;29;20047;-93
2024/01/22 13:51:25;;;;;;;26.77;5.70;;;;;;;;;;4958744;28;20399;-89
2024/01/22 13:53:58;;;;;;;22.45;5.18;;;;;;;;;;4956681;28;20492;-89
2024/01/22 13:56:35;;;;;;;17.77;4.13;;;;;;;;;;4956232;29;20063;-93
2024/01/22 13:59:29;;;;;;;25.92;6.43;;;;;;;;;;4942969;28;20074;-92
2024/01/22 14:02:41;;;;;;;20.02;5.00;;;;;;;;;;4952218;28;20054;-93
2024/01/22 14:05:30;;;;;;;23.67;4.70;;;;;;;;;;4913578;29;20043;-95
2024/01/22 14:15:01;;;;;;;19.67;4.78;;;;;;;;;;4922370;23;20084;-95
2024/01/22 14:18:19;;;;;;;17.48;5.65;;;;;;;;;;4931356;29;20130;-93
2024/01/22 14:23:54;;;;;;;17.85;5.55;;;;;;;;;;5062836;23;20432;-91
2024/01/22 21:51:41;;;;;;;22.48;4.03;;;;;;;;;;4806859;24;20055;-94
2024/01/22 21:54:07;;;;;;;16.05;5.03;;;;;;;;;;4787658;29;20051;-92
2024/01/22 21:56:33;;;;;;;19.02;5.00;;;;;;;;;;4784959;29;20050;-94
2024/01/22 21:58:59;;;;;;;39.55;4.95;;;;;;;;;;4790508;29;20053;-93
2024/01/22 22:01:25;;;;;;;21.33;4.82;;;;;;;;;;4779097;29;20115;-92
2024/01/22 22:07:21;;;;;;;16.80;4.43;;;;;;;;;;4799079;24;20071;-94
2024/01/22 22:09:47;;;;;;;15.70;3.70;;;;;;;;;;4767604;30;20051;-94
2024/01/22 22:12:14;;;;;;;23.80;3.90;;;;;;;;;;4759467;30;20112;-95
2024/01/22 22:14:40;;;;;;;13.32;2.83;;;;;;;;;;4747324;30;20534;-92
2024/01/22 22:17:06;;;;;;;14.95;3.65;;;;;;;;;;4755412;30;20063;-94
2024/01/22 22:19:33;;;;;;;10.70;2.97;;;;;;;;;;4759343;30;20044;-95
2024/01/22 22:21:59;;;;;;;13.70;4.78;;;;;;;;;;4754926;30;20075;-95
2024/01/22 22:24:25;;;;;;;18.02;4.63;;;;;;;;;;4755485;30;20054;-96
2024/01/22 22:26:51;;;;;;;21.50;4.47;;;;;;;;;;4753293;30;20058;-95
2024/01/22 22:29:17;;;;;;;15.98;3.58;;;;;;;;;;4753689;30;20043;-93
2024/01/22 22:31:44;;;;;;;16.92;2.90;;;;;;;;;;4753459;30;20047;-96
2024/01/22 22:34:10;;;;;;;9.90;3.55;;;;;;;;;;4746118;30;20051;-96
2024/01/22 22:36:36;;;;;;;10.73;3.38;;;;;;;;;;4747800;30;20086;-96
2024/01/22 22:39:03;;;;;;;19.10;4.75;;;;;;;;;;4753278;30;20059;-94
2024/01/22 22:41:29;;;;;;;14.43;4.32;;;;;;;;;;4753064;30;20048;-92
2024/01/22 22:43:55;;;;;;;24.38;4.40;;;;;;;;;;4753198;30;20059;-95
2024/01/22 22:46:24;;;;;;;23.70;3.90;;;;;;;;;;4738271;30;20052;-94
2024/01/22 22:48:51;;;;;;;14.38;3.90;;;;;;;;;;4752042;30;20268;-95
2024/01/22 22:51:17;;;;;;;19.85;4.18;;;;;;;;;;4756777;30;20055;-95
2024/01/22 22:53:43;;;;;;;17.75;3.83;;;;;;;;;;4736684;30;20048;-95
2024/01/22 22:56:09;;;;;;;26.45;5.55;;;;;;;;;;4742248;30;20052;-96
2024/01/22 22:58:36;;;;;;;15.05;3.85;;;;;;;;;;4735939;30;20055;-95
2024/01/22 23:01:03;;;;;;;21.17;4.05;;;;;;;;;;4756074;30;20493;-95
2024/01/22 23:03:29;;;;;;;15.25;4.10;;;;;;;;;;4755915;30;20051;-96
2024/01/22 23:05:55;;;;;;;15.80;4.50;;;;;;;;;;4737886;30;20099;-94
2024/01/22 23:08:22;;;;;;;23.75;4.35;;;;;;;;;;4755869;30;20056;-96
2024/01/22 23:10:49;;;;;;;23.05;5.40;;;;;;;;;;4766282;30;20047;-94
2024/01/22 23:13:15;;;;;;;17.15;4.07;;;;;;;;;;4770936;30;20100;-93
2024/01/22 23:15:41;;;;;;;20.30;4.10;;;;;;;;;;4765488;30;20059;-94
2024/01/22 23:18:09;;;;;;;15.95;3.80;;;;;;;;;;4770790;30;20048;-95
2024/01/22 23:20:36;;;;;;;14.65;4.20;;;;;;;;;;4764882;30;20138;-92
2024/01/22 23:23:02;;;;;;;13.80;2.72;;;;;;;;;;4770662;30;20039;-95
2024/01/22 23:25:29;;;;;;;7.95;3.53;;;;;;;;;;4762833;30;20513;-93
2024/01/22 23:27:59;;;;;;;17.50;4.72;;;;;;;;;;4770135;30;20494;-95
2024/01/22 23:30:25;;;;;;;14.43;4.93;;;;;;;;;;4756364;30;20498;-95
2024/01/22 23:32:51;;;;;;;11.48;3.65;;;;;;;;;;4770830;30;20055;-95
2024/01/22 23:35:17;;;;;;;23.30;4.80;;;;;;;;;;4771080;30;20136;-94
2024/01/22 23:37:50;;;;;;;10.93;4.30;;;;;;;;;;4765896;30;20059;-94
2024/01/22 23:40:16;;;;;;;11.38;2.90;;;;;;;;;;4770879;30;20106;-94
2024/01/22 23:42:42;;;;;;;18.23;4.15;;;;;;;;;;4764800;30;20051;-92
2024/01/22 23:45:09;;;;;;;15.20;4.45;;;;;;;;;;4770197;30;20052;-94
2024/01/22 23:47:35;;;;;;;12.32;4.22;;;;;;;;;;4749412;30;20052;-95
2024/01/22 23:50:02;;;;;;;9.63;3.17;;;;;;;;;;4769829;30;20058;-93
2024/01/22 23:52:28;;;;;;;17.02;4.78;;;;;;;;;;4763346;30;20448;-94